Time;durP1;ratioP1;P1;durP2;ratioP2;P2;SDS_P1;SDS_P2;PMS_P1;PMS_P2;Temp;Humidity;BMP_temperature;BMP_pressure;BME280_temperature;BME280_humidity;BME280_pressure;Samples;Min_cycle;Max_cycle;Signal;HPM_P1;HPM_P2
2022/08/04 00:00:22;;;;;;;4.05;3.40;;;;;;;23.56;61.97;94821.97;5098036;28;20225;-90
2022/08/04 00:03:03;;;;;;;3.47;3.17;;;;;;;23.53;62.37;94826.63;5097266;28;20186;-80
2022/08/04 00:05:39;;;;;;;3.75;3.13;;;;;;;23.42;62.48;94823.91;5098420;28;20185;-83
2022/08/04 00:08:13;;;;;;;4.00;3.20;;;;;;;23.36;62.55;94806.47;5105900;28;20253;-91
2022/08/04 00:10:48;;;;;;;3.42;3.13;;;;;;;23.44;62.78;94827.88;5103558;28;20193;-91
2022/08/04 00:13:22;;;;;;;7.65;3.63;;;;;;;23.43;62.95;94828.09;5104715;28;20195;-93
2022/08/04 00:15:52;;;;;;;3.97;3.55;;;;;;;23.32;62.84;94810.56;5079056;28;20226;-90
2022/08/04 00:18:23;;;;;;;3.72;3.15;;;;;;;23.35;63.16;94812.72;5078492;28;20608;-93
2022/08/04 00:20:54;;;;;;;3.55;2.92;;;;;;;23.29;63.52;94809.16;5078658;28;20190;-83
2022/08/04 00:23:23;;;;;;;4.05;3.33;;;;;;;23.28;63.75;94818.81;5077667;28;20197;-89
2022/08/04 00:25:51;;;;;;;3.53;3.22;;;;;;;23.26;63.95;94812.19;5079119;28;20190;-93
2022/08/04 00:28:20;;;;;;;3.58;3.28;;;;;;;23.25;63.86;94813.19;5082075;28;20187;-89
2022/08/04 00:30:47;;;;;;;5.15;3.33;;;;;;;23.23;63.99;94810.03;5083202;28;20191;-89
2022/08/04 00:33:19;;;;;;;4.00;3.60;;;;;;;22.94;64.04;94761.88;5082959;28;20186;-89
2022/08/04 00:35:48;;;;;;;3.67;3.20;;;;;;;23.20;64.00;94808.63;5103803;28;20267;-92
2022/08/04 00:38:15;;;;;;;4.95;3.00;;;;;;;23.19;64.03;94812.25;5100556;28;20314;-93
2022/08/04 00:40:50;;;;;;;4.97;3.60;;;;;;;23.12;63.96;94808.88;5097910;28;20276;-93
2022/08/04 00:43:24;;;;;;;3.53;3.20;;;;;;;23.13;63.87;94817.50;5092232;28;20188;-94
2022/08/04 00:46:34;;;;;;;3.20;3.00;;;;;;;23.10;63.47;94820.53;5079043;28;20190;-92
2022/08/04 00:49:33;;;;;;;3.33;3.00;;;;;;;23.10;63.43;94817.94;4999457;28;20230;-89
2022/08/04 00:52:11;;;;;;;4.25;3.10;;;;;;;23.06;63.39;94821.97;5008212;28;20189;-88
2022/08/04 00:54:59;;;;;;;5.95;3.55;;;;;;;23.01;63.76;94820.81;5025380;28;20211;-90
2022/08/04 00:57:34;;;;;;;5.95;3.67;;;;;;;22.99;63.70;94819.41;5015524;28;20207;-79
2022/08/04 01:00:08;;;;;;;3.45;3.15;;;;;;;23.01;63.61;94826.03;5021158;28;20227;-83
2022/08/04 01:02:48;;;;;;;5.72;3.67;;;;;;;23.00;63.69;94826.22;5028235;28;20265;-90
2022/08/04 01:05:21;;;;;;;4.25;3.65;;;;;;;22.60;63.69;94770.91;5022889;28;20679;-84
2022/08/04 01:08:06;;;;;;;5.30;3.20;;;;;;;22.94;63.69;94822.66;5018633;28;20192;-88
2022/08/04 01:10:45;;;;;;;3.40;3.10;;;;;;;22.91;63.95;94830.91;5016632;28;20235;-86
2022/08/04 01:13:41;;;;;;;5.10;3.55;;;;;;;22.89;64.20;94826.88;5016770;28;20331;-86
2022/08/04 01:16:11;;;;;;;3.85;2.80;;;;;;;22.87;63.97;94826.28;5014703;28;20232;-86
2022/08/04 01:18:49;;;;;;;4.80;3.00;;;;;;;22.72;64.03;94816.16;5020533;28;20199;-86
2022/08/04 01:21:51;;;;;;;3.75;3.25;;;;;;;22.81;64.40;94842.78;5019189;28;20196;-92
2022/08/04 01:24:45;;;;;;;3.35;3.05;;;;;;;22.77;64.51;94840.59;5016870;28;20184;-86
2022/08/04 01:27:25;;;;;;;3.63;3.33;;;;;;;22.75;64.48;94839.19;5101363;28;20690;-82
2022/08/04 01:29:59;;;;;;;3.88;3.38;;;;;;;22.73;64.67;94842.00;5085880;28;20230;-81
2022/08/04 01:32:32;;;;;;;5.07;3.47;;;;;;;22.70;64.79;94839.03;5086683;28;20218;-81
2022/08/04 01:35:08;;;;;;;6.55;3.53;;;;;;;22.65;65.17;94833.63;5088423;28;20187;-81
2022/08/04 01:37:49;;;;;;;5.07;3.30;;;;;;;22.66;65.21;94825.59;5083509;28;20185;-86
2022/08/04 01:40:16;;;;;;;3.08;2.88;;;;;;;22.65;64.99;94828.44;5086951;28;20186;-82
2022/08/04 01:42:45;;;;;;;3.65;3.35;;;;;;;22.61;65.60;94822.81;5088490;28;20277;-83
2022/08/04 01:45:14;;;;;;;3.08;2.88;;;;;;;22.60;65.54;94818.63;5089278;28;20218;-85
2022/08/04 01:47:48;;;;;;;3.28;3.08;;;;;;;22.54;65.46;94809.03;5089997;28;20200;-79
2022/08/04 01:50:15;;;;;;;3.78;3.33;;;;;;;22.57;65.52;94818.22;5098438;28;20277;-81
2022/08/04 01:52:44;;;;;;;4.43;3.38;;;;;;;22.14;64.88;94769.34;5109198;28;20182;-84
2022/08/04 01:55:13;;;;;;;3.90;3.50;;;;;;;22.39;65.03;94824.94;5108212;28;20196;-82
2022/08/04 01:57:43;;;;;;;4.60;2.92;;;;;;;22.43;65.13;94840.97;5105635;28;20200;-84
2022/08/04 02:00:11;;;;;;;3.30;3.08;;;;;;;22.25;64.83;94805.16;5097234;28;20605;-88
2022/08/04 02:02:40;;;;;;;3.40;3.10;;;;;;;22.29;65.26;94814.97;5096420;28;20186;-91
2022/08/04 02:05:10;;;;;;;6.40;3.10;;;;;;;22.33;65.29;94817.97;5096203;28;20189;-84
2022/08/04 02:08:03;;;;;;;4.18;3.08;;;;;;;22.39;65.16;94826.75;5095816;28;20199;-88
2022/08/04 02:10:44;;;;;;;3.40;3.17;;;;;;;22.34;65.45;94827.38;5092320;28;20249;-87
2022/08/04 02:13:27;;;;;;;3.28;2.97;;;;;;;22.27;65.78;94811.75;5076333;28;20194;-87
2022/08/04 02:16:01;;;;;;;4.75;3.17;;;;;;;22.32;65.57;94825.97;5076515;28;20225;-84
2022/08/04 02:18:32;;;;;;;4.88;3.17;;;;;;;22.27;65.56;94827.38;5076059;28;20193;-86
2022/08/04 02:21:01;;;;;;;3.80;3.15;;;;;;;22.31;65.73;94825.16;5089583;28;20584;-89
2022/08/04 02:23:36;;;;;;;4.22;3.85;;;;;;;22.29;65.71;94820.19;5096415;28;20205;-84
2022/08/04 02:26:05;;;;;;;4.18;3.38;;;;;;;22.27;65.79;94821.38;5096468;28;20708;-84
2022/08/04 02:28:40;;;;;;;4.43;4.03;;;;;;;22.26;66.08;94814.56;5096022;28;20189;-84
2022/08/04 02:31:27;;;;;;;4.47;3.40;;;;;;;22.12;66.19;94793.00;5096339;28;20718;-88
2022/08/04 02:34:05;;;;;;;5.47;4.53;;;;;;;22.10;67.31;94809.78;5097618;28;20733;-83
2022/08/04 02:36:37;;;;;;;5.50;3.80;;;;;;;22.03;67.03;94804.63;5082279;28;20190;-79
2022/08/04 02:39:06;;;;;;;5.97;4.35;;;;;;;22.03;67.39;94817.66;5082934;28;20582;-82
2022/08/04 02:41:34;;;;;;;7.40;4.30;;;;;;;22.03;67.51;94813.22;5102200;28;20209;-82
2022/08/04 02:44:02;;;;;;;9.32;4.10;;;;;;;22.04;67.48;94822.63;5101006;28;20277;-83
2022/08/04 02:46:30;;;;;;;6.05;4.50;;;;;;;21.92;67.88;94813.84;5098724;28;20191;-79
2022/08/04 02:49:02;;;;;;;6.38;4.82;;;;;;;22.01;68.27;94823.03;5097271;28;20200;-77
2022/08/04 02:51:32;;;;;;;7.13;4.28;;;;;;;21.88;68.40;94807.44;5077356;28;20190;-80
2022/08/04 02:54:00;;;;;;;4.82;4.38;;;;;;;21.92;68.32;94821.66;5076086;28;20190;-81
2022/08/04 02:56:30;;;;;;;5.50;4.30;;;;;;;21.99;68.38;94829.47;5086285;28;20256;-79
2022/08/04 02:59:00;;;;;;;10.02;5.60;;;;;;;21.92;68.24;94815.66;5104584;28;20190;-82
2022/08/04 03:01:27;;;;;;;9.20;4.53;;;;;;;21.99;68.29;94830.28;5105107;28;20692;-84
2022/08/04 03:04:19;;;;;;;5.53;4.95;;;;;;;21.96;68.77;94833.28;5102087;28;20269;-81
2022/08/04 03:07:24;;;;;;;9.20;5.63;;;;;;;21.91;68.44;94821.88;5083271;28;20182;-79
2022/08/04 03:10:11;;;;;;;8.52;5.68;;;;;;;21.94;68.20;94835.28;4977959;28;20220;-80
2022/08/04 03:13:10;;;;;;;6.53;5.80;;;;;;;21.73;67.94;94804.31;4926049;29;20283;-81
2022/08/04 03:16:14;;;;;;;6.60;5.60;;;;;;;21.75;68.24;94810.88;4924578;29;20231;-82
2022/08/04 03:19:22;;;;;;;5.97;4.68;;;;;;;21.85;67.64;94830.50;4928447;29;20224;-83
2022/08/04 03:22:38;;;;;;;5.65;4.70;;;;;;;21.72;67.75;94836.56;4948256;29;20199;-78
2022/08/04 03:25:41;;;;;;;4.50;4.10;;;;;;;21.56;68.04;94832.56;4946519;29;20199;-80
2022/08/04 03:28:38;;;;;;;4.95;4.45;;;;;;;21.07;68.26;94766.13;4947364;29;20319;-82
2022/08/04 03:31:29;;;;;;;5.43;4.45;;;;;;;21.50;68.29;94826.38;4948609;29;20309;-83
2022/08/04 03:34:12;;;;;;;6.50;4.90;;;;;;;21.49;68.41;94824.75;4949310;29;20191;-80
2022/08/04 03:37:08;;;;;;;7.30;4.00;;;;;;;21.47;68.72;94828.56;4941850;29;20198;-84
2022/08/04 03:40:16;;;;;;;7.85;4.32;;;;;;;21.43;68.80;94822.97;4940270;28;20206;-86
2022/08/04 03:43:19;;;;;;;6.13;4.53;;;;;;;21.40;68.56;94812.16;4947697;29;20205;-80
2022/08/04 03:46:16;;;;;;;5.20;4.70;;;;;;;21.43;68.56;94825.56;4951544;28;20299;-90
2022/08/04 03:49:03;;;;;;;4.40;4.00;;;;;;;21.50;68.24;94831.56;5037467;28;20196;-81
2022/08/04 03:55:04;;;;;;;4.90;4.50;;;;;;;21.19;68.84;94810.53;5090474;28;20274;-82
2022/08/04 03:57:53;;;;;;;4.65;4.25;;;;;;;21.01;69.48;94817.13;5100110;28;20189;-79
2022/08/04 04:00:30;;;;;;;4.57;4.17;;;;;;;21.04;70.11;94837.53;5094571;28;20194;-88
2022/08/04 04:03:27;;;;;;;9.13;4.27;;;;;;;21.00;69.72;94812.91;5078874;28;20276;-81
2022/08/04 04:06:46;;;;;;;5.03;4.57;;;;;;;21.05;70.16;94820.91;5078768;28;20269;-84
2022/08/04 04:09:31;;;;;;;5.53;4.33;;;;;;;21.02;70.28;94823.13;5077570;28;20185;-83
2022/08/04 04:12:14;;;;;;;5.35;3.60;;;;;;;21.10;70.23;94838.53;5079341;28;20815;-81
2022/08/04 04:15:04;;;;;;;4.90;4.50;;;;;;;21.13;70.08;94839.94;5080670;28;20221;-81
2022/08/04 04:18:14;;;;;;;4.50;3.73;;;;;;;21.15;70.38;94843.13;5081164;28;20194;-82
2022/08/04 04:21:11;;;;;;;5.73;4.50;;;;;;;21.16;70.20;94836.94;5081152;28;20197;-80
2022/08/04 04:24:01;;;;;;;6.13;5.50;;;;;;;21.22;69.90;94844.75;5076992;28;20221;-83
2022/08/04 04:26:51;;;;;;;6.10;4.70;;;;;;;21.17;70.02;94833.34;5076399;28;20186;-89
2022/08/04 04:29:39;;;;;;;6.65;5.00;;;;;;;21.22;70.02;94839.53;5076135;28;20182;-83
2022/08/04 04:32:20;;;;;;;6.30;4.53;;;;;;;21.25;70.39;94849.56;5075250;28;20190;-85
2022/08/04 04:35:01;;;;;;;11.73;5.10;;;;;;;21.29;70.32;94845.56;5076033;28;20190;-83
2022/08/04 04:37:43;;;;;;;8.27;5.07;;;;;;;21.29;70.15;94848.16;5076317;28;20323;-85
2022/08/04 04:40:28;;;;;;;11.98;5.65;;;;;;;21.33;70.12;94848.59;5075749;28;20191;-82
2022/08/04 04:43:31;;;;;;;8.65;5.13;;;;;;;21.33;69.88;94840.78;5076059;28;20201;-78
2022/08/04 04:46:03;;;;;;;10.77;5.13;;;;;;;21.29;69.91;94823.94;5075602;28;20259;-83
2022/08/04 04:48:44;;;;;;;8.30;5.32;;;;;;;21.44;69.77;94854.97;5076209;28;20201;-78
2022/08/04 04:51:20;;;;;;;4.82;4.40;;;;;;;21.42;69.65;94831.78;5076243;28;20229;-83
2022/08/04 04:54:08;;;;;;;8.02;5.80;;;;;;;21.45;69.96;94852.16;5074763;28;20276;-79
2022/08/04 04:56:41;;;;;;;10.98;5.70;;;;;;;21.29;70.13;94831.75;5079652;28;20198;-82
2022/08/04 04:59:15;;;;;;;6.82;5.68;;;;;;;21.37;70.21;94841.97;5077665;28;20561;-83
2022/08/04 05:02:01;;;;;;;6.07;5.55;;;;;;;21.36;69.95;94834.38;5095500;28;20189;-80
2022/08/04 05:05:03;;;;;;;6.63;5.70;;;;;;;21.51;70.16;94856.59;5093319;28;20199;-80
2022/08/04 05:07:57;;;;;;;6.27;5.67;;;;;;;21.58;70.20;94851.34;5086484;28;20186;-79
2022/08/04 05:10:46;;;;;;;6.63;5.77;;;;;;;21.61;69.93;94850.97;5111536;28;20588;-87
2022/08/04 05:13:36;;;;;;;6.85;6.15;;;;;;;21.57;70.35;94841.97;5096442;28;20194;-88
2022/08/04 05:16:10;;;;;;;6.40;5.80;;;;;;;21.66;69.99;94848.56;5048720;28;20211;-87
2022/08/04 05:18:40;;;;;;;15.90;5.80;;;;;;;21.78;69.81;94859.16;5034471;28;20249;-82
2022/08/04 05:21:20;;;;;;;17.70;7.82;;;;;;;21.72;69.79;94857.38;5038039;28;20195;-85
2022/08/04 05:23:56;;;;;;;13.67;6.93;;;;;;;21.62;70.12;94849.16;5033615;28;20195;-81
2022/08/04 05:26:29;;;;;;;6.75;6.15;;;;;;;21.76;70.14;94863.75;5033224;28;20205;-83
2022/08/04 05:28:59;;;;;;;10.40;6.53;;;;;;;21.71;69.92;94856.56;5036451;28;20191;-82
2022/08/04 05:31:32;;;;;;;9.10;6.28;;;;;;;21.64;70.43;94858.38;5052386;28;20273;-80
2022/08/04 05:34:05;;;;;;;14.05;6.75;;;;;;;21.71;70.35;94861.75;5051855;28;20183;-83
2022/08/04 05:36:37;;;;;;;8.88;6.10;;;;;;;21.73;70.54;94866.78;5041137;28;20196;-87
2022/08/04 05:39:11;;;;;;;11.73;7.07;;;;;;;21.76;70.78;94861.97;5036366;28;20199;-87
2022/08/04 05:41:40;;;;;;;6.47;5.82;;;;;;;22.00;71.04;94864.91;5034648;28;20199;-81
2022/08/04 05:44:09;;;;;;;8.23;7.38;;;;;;;22.07;70.70;94865.72;5035535;28;20198;-85
2022/08/04 05:46:37;;;;;;;7.18;6.47;;;;;;;22.19;70.94;94860.69;5034325;28;20192;-89
2022/08/04 05:49:05;;;;;;;14.13;7.47;;;;;;;22.27;69.99;94861.25;5034054;28;20255;-88
2022/08/04 05:51:34;;;;;;;9.27;6.90;;;;;;;22.24;69.52;94861.69;5033111;28;20223;-85
2022/08/04 05:54:02;;;;;;;10.63;6.82;;;;;;;22.43;69.50;94867.81;5033496;28;20227;-79
2022/08/04 05:56:33;;;;;;;10.45;7.13;;;;;;;22.56;69.11;94868.78;5038152;28;20184;-82
2022/08/04 05:59:03;;;;;;;8.50;6.25;;;;;;;22.68;68.97;94862.69;5044381;28;20742;-78
2022/08/04 06:01:35;;;;;;;9.20;8.27;;;;;;;22.68;68.21;94865.31;5048555;28;20183;-79
2022/08/04 06:04:03;;;;;;;16.13;8.20;;;;;;;22.58;68.28;94872.75;5051017;28;20187;-78
2022/08/04 06:06:31;;;;;;;14.43;8.55;;;;;;;22.22;68.59;94848.06;5040312;28;20199;-81
2022/08/04 06:08:58;;;;;;;11.95;8.45;;;;;;;22.26;69.45;94874.50;5041363;28;20199;-86
2022/08/04 06:11:28;;;;;;;11.48;7.50;;;;;;;22.39;68.97;94873.66;5038332;28;20237;-79
2022/08/04 06:13:58;;;;;;;9.30;6.90;;;;;;;22.53;68.73;94875.19;5050817;28;20191;-78
2022/08/04 06:16:34;;;;;;;10.48;7.20;;;;;;;22.53;68.31;94859.56;5088512;28;20201;-83
2022/08/04 06:19:06;;;;;;;7.93;7.18;;;;;;;22.60;68.63;94875.19;5074892;28;20653;-80
2022/08/04 06:21:35;;;;;;;9.35;8.35;;;;;;;22.62;68.21;94881.75;5072766;28;20198;-86
2022/08/04 06:24:04;;;;;;;10.57;8.90;;;;;;;22.54;68.72;94872.41;5078194;28;20194;-84
2022/08/04 06:26:34;;;;;;;9.75;8.07;;;;;;;22.61;68.58;94877.56;5075728;28;20297;-81
2022/08/04 06:29:04;;;;;;;13.73;8.32;;;;;;;22.34;68.69;94863.84;5072433;28;20281;-81
2022/08/04 06:31:45;;;;;;;13.75;8.90;;;;;;;22.36;69.33;94882.66;5075108;28;20213;-80
2022/08/04 06:34:14;;;;;;;12.48;7.80;;;;;;;22.06;69.19;94817.22;5083280;28;20584;-81
2022/08/04 06:36:42;;;;;;;8.95;7.38;;;;;;;22.57;68.92;94881.59;5087358;28;20228;-81
2022/08/04 06:39:11;;;;;;;7.82;6.88;;;;;;;22.69;68.66;94873.94;5075768;28;20179;-82
2022/08/04 06:41:38;;;;;;;9.57;8.50;;;;;;;22.68;68.37;94880.16;5079878;28;20194;-79
2022/08/04 06:44:09;;;;;;;10.10;8.60;;;;;;;22.51;68.95;94849.34;5088099;28;20209;-79
2022/08/04 06:46:38;;;;;;;11.18;8.20;;;;;;;22.78;68.47;94878.69;5091730;28;20599;-80
2022/08/04 06:49:05;;;;;;;11.43;7.93;;;;;;;22.76;67.84;94869.50;5089882;28;20205;-80
2022/08/04 06:51:34;;;;;;;11.82;6.78;;;;;;;22.94;67.72;94885.25;5081030;28;20224;-82
2022/08/04 06:54:02;;;;;;;13.93;8.48;;;;;;;23.03;67.89;94878.00;5088541;28;20193;-84
2022/08/04 06:56:31;;;;;;;9.20;7.60;;;;;;;22.77;67.58;94824.94;5081620;28;20284;-82
2022/08/04 06:59:01;;;;;;;10.60;7.00;;;;;;;23.24;68.01;94867.22;5081104;28;20196;-82
2022/08/04 07:01:31;;;;;;;10.27;6.47;;;;;;;23.47;67.13;94882.28;5071840;28;20221;-81
2022/08/04 07:03:59;;;;;;;7.07;6.38;;;;;;;23.65;67.12;94875.56;5088844;28;20208;-83
2022/08/04 07:06:26;;;;;;;9.68;6.55;;;;;;;23.65;66.69;94852.84;5096906;28;20201;-84
2022/08/04 07:08:55;;;;;;;8.85;7.60;;;;;;;23.93;65.70;94873.28;5092067;28;20205;-86
2022/08/04 07:11:23;;;;;;;15.73;8.27;;;;;;;23.87;65.18;94876.75;5086735;28;20217;-79
2022/08/04 07:13:51;;;;;;;11.18;7.25;;;;;;;23.98;65.13;94880.47;5083781;28;20198;-83
2022/08/04 07:16:20;;;;;;;10.52;7.00;;;;;;;24.08;64.84;94874.75;5080143;28;20198;-81
2022/08/04 07:18:49;;;;;;;9.32;6.63;;;;;;;24.19;64.35;94861.75;5089949;28;20312;-85
2022/08/04 07:21:25;;;;;;;11.38;6.43;;;;;;;24.44;63.62;94876.59;5086271;28;20198;-84
2022/08/04 07:23:53;;;;;;;10.43;6.30;;;;;;;24.59;64.02;94873.59;5094391;28;20201;-87
2022/08/04 07:26:19;;;;;;;10.73;6.50;;;;;;;24.71;63.71;94872.63;5097124;28;20285;-87
2022/08/04 07:28:48;;;;;;;8.43;6.00;;;;;;;24.87;62.52;94852.91;5080627;28;20205;-83
2022/08/04 07:31:17;;;;;;;7.53;5.97;;;;;;;25.18;60.94;94869.41;5073334;28;20234;-81
2022/08/04 07:33:46;;;;;;;11.52;5.95;;;;;;;25.37;60.53;94865.69;5077700;28;20194;-81
2022/08/04 07:36:15;;;;;;;8.90;6.93;;;;;;;25.51;60.91;94868.88;5081521;28;20201;-83
2022/08/04 07:38:43;;;;;;;9.55;6.20;;;;;;;25.39;59.13;94813.09;5081859;28;20196;-83
2022/08/04 07:41:11;;;;;;;10.70;6.18;;;;;;;25.94;59.31;94863.34;5085179;28;20179;-84
2022/08/04 07:43:38;;;;;;;11.43;6.47;;;;;;;26.09;58.36;94862.09;5075446;28;20691;-87
2022/08/04 07:46:05;;;;;;;9.82;7.53;;;;;;;26.14;57.13;94842.03;5082178;28;20907;-87
2022/08/04 07:48:32;;;;;;;14.38;7.35;;;;;;;26.44;57.83;94864.69;5078867;28;20565;-88
2022/08/04 07:51:00;;;;;;;9.35;6.45;;;;;;;26.62;57.35;94861.88;5081021;28;20225;-88
2022/08/04 07:53:31;;;;;;;11.73;6.95;;;;;;;26.81;56.67;94872.19;5080997;28;20194;-87
2022/08/04 07:55:58;;;;;;;9.30;6.82;;;;;;;26.93;55.31;94868.50;5080414;28;20189;-89
2022/08/04 07:58:27;;;;;;;7.32;6.53;;;;;;;26.87;54.49;94860.78;5082086;28;20584;-86
2022/08/04 08:00:54;;;;;;;22.27;18.58;;;;;;;27.05;54.61;94868.44;5084161;28;20201;-88
2022/08/04 08:03:22;;;;;;;42.10;35.55;;;;;;;27.10;55.30;94862.50;5085468;28;20815;-87
2022/08/04 08:05:50;;;;;;;11.30;8.95;;;;;;;27.12;55.03;94863.88;5080393;28;20190;-81
2022/08/04 08:08:19;;;;;;;7.35;6.03;;;;;;;27.22;53.96;94860.63;5082866;28;20214;-89
2022/08/04 08:10:48;;;;;;;7.40;6.15;;;;;;;27.35;54.24;94867.41;5088021;28;20222;-87
2022/08/04 08:13:16;;;;;;;10.40;6.65;;;;;;;27.47;53.29;94868.13;5079685;28;20688;-88
2022/08/04 08:15:46;;;;;;;8.60;6.32;;;;;;;27.57;52.95;94868.28;5082874;28;20230;-89
2022/08/04 08:18:18;;;;;;;10.73;6.18;;;;;;;27.60;53.27;94865.19;5080457;28;20591;-86
2022/08/04 08:20:46;;;;;;;11.52;6.25;;;;;;;27.64;52.80;94855.00;5081588;28;20206;-89
2022/08/04 08:23:13;;;;;;;11.05;6.15;;;;;;;27.67;52.42;94863.16;5092031;28;20289;-91
2022/08/04 08:25:40;;;;;;;16.65;5.57;;;;;;;27.66;52.96;94858.16;5092371;28;20185;-81
2022/08/04 08:28:08;;;;;;;5.72;5.10;;;;;;;27.83;51.90;94861.59;5084970;28;20202;-81
2022/08/04 08:30:37;;;;;;;5.70;5.10;;;;;;;27.95;51.23;94867.56;5084546;28;20189;-81
2022/08/04 08:33:08;;;;;;;6.85;5.10;;;;;;;28.06;51.21;94863.22;5082152;28;20190;-81
2022/08/04 08:35:47;;;;;;;6.25;5.00;;;;;;;28.15;51.78;94866.22;5085290;28;20265;-87
2022/08/04 08:38:17;;;;;;;7.43;5.40;;;;;;;28.24;51.36;94865.59;5078727;28;20221;-81
2022/08/04 08:40:52;;;;;;;15.23;6.80;;;;;;;28.26;50.78;94870.59;5074610;28;20695;-79
2022/08/04 08:44:01;;;;;;;10.30;5.75;;;;;;;28.30;50.95;94863.03;5080227;28;20204;-78
2022/08/04 08:46:54;;;;;;;7.55;5.28;;;;;;;28.25;50.58;94838.25;5085309;28;20202;-82
2022/08/04 08:49:47;;;;;;;5.38;4.88;;;;;;;28.47;50.50;94867.22;5080745;28;20198;-83
2022/08/04 08:52:31;;;;;;;9.30;3.92;;;;;;;28.57;49.38;94869.16;5087238;28;20260;-89
2022/08/04 08:55:17;;;;;;;6.22;4.20;;;;;;;28.28;48.66;94850.09;5097332;28;20201;-86
2022/08/04 08:58:02;;;;;;;8.30;5.10;;;;;;;27.98;48.73;94805.81;5097008;28;20192;-85
2022/08/04 09:00:41;;;;;;;10.02;4.57;;;;;;;28.45;49.38;94869.31;5095141;28;20202;-91
2022/08/04 09:03:26;;;;;;;10.13;4.40;;;;;;;28.54;49.30;94855.69;5084965;28;20194;-90
2022/08/04 09:06:17;;;;;;;9.63;3.75;;;;;;;28.59;48.33;94864.47;5084133;28;20190;-91
2022/08/04 09:09:08;;;;;;;6.63;4.13;;;;;;;28.64;48.83;94871.63;5093900;28;20198;-82
2022/08/04 09:12:24;;;;;;;5.68;4.18;;;;;;;28.70;49.04;94866.16;5090773;28;20286;-80
2022/08/04 09:14:56;;;;;;;8.52;4.35;;;;;;;28.61;49.26;94840.50;4984528;28;20221;-93
2022/08/04 09:17:33;;;;;;;8.07;5.40;;;;;;;28.78;49.25;94850.97;4987265;28;20685;-83
2022/08/04 09:20:06;;;;;;;7.45;6.05;;;;;;;28.63;49.56;94859.50;4983952;28;20204;-79
2022/08/04 09:22:43;;;;;;;5.93;5.22;;;;;;;28.54;49.58;94858.31;4980719;28;20197;-80
2022/08/04 09:25:19;;;;;;;10.65;5.70;;;;;;;28.58;49.98;94844.41;4980880;28;20193;-79
2022/08/04 09:27:51;;;;;;;7.75;4.40;;;;;;;28.63;50.31;94848.97;4980075;28;20201;-79
2022/08/04 09:30:21;;;;;;;5.68;4.85;;;;;;;28.68;49.86;94841.13;4981393;28;20819;-80
2022/08/04 09:32:59;;;;;;;9.25;5.20;;;;;;;28.77;49.79;94839.66;4978193;28;20213;-81
2022/08/04 09:35:40;;;;;;;10.40;4.72;;;;;;;28.90;49.44;94844.50;4978537;28;20747;-80
2022/08/04 09:38:16;;;;;;;6.28;4.22;;;;;;;29.02;47.98;94843.56;4978374;28;20193;-86
2022/08/04 09:40:49;;;;;;;4.50;4.10;;;;;;;29.08;47.69;94838.13;4974202;28;20224;-88
2022/08/04 09:43:28;;;;;;;5.60;4.80;;;;;;;29.09;47.76;94844.19;4980572;28;20610;-86
2022/08/04 09:46:02;;;;;;;4.50;4.03;;;;;;;29.20;47.69;94851.13;4977283;28;20217;-85
2022/08/04 09:48:39;;;;;;;5.00;4.28;;;;;;;29.20;47.99;94835.34;4983228;28;20672;-83
2022/08/04 09:51:31;;;;;;;3.83;3.10;;;;;;;29.28;47.75;94842.78;4985254;28;20196;-86
2022/08/04 09:54:05;;;;;;;2.67;2.47;;;;;;;29.31;44.35;94842.25;4979173;28;20197;-84
2022/08/04 09:56:41;;;;;;;3.03;2.20;;;;;;;29.36;42.92;94846.78;4982901;28;20202;-83
2022/08/04 09:59:20;;;;;;;4.53;2.38;;;;;;;29.42;42.63;94840.53;4977645;28;20282;-87
2022/08/04 10:01:53;;;;;;;3.28;2.65;;;;;;;29.46;42.15;94836.34;4963532;28;20201;-84
2022/08/04 10:04:24;;;;;;;3.20;2.35;;;;;;;29.53;42.35;94836.09;5026489;28;20201;-85
2022/08/04 10:07:18;;;;;;;3.97;2.80;;;;;;;29.59;42.81;94833.28;5075415;28;20182;-84
2022/08/04 10:10:01;;;;;;;3.70;2.90;;;;;;;29.69;43.39;94827.28;4998183;28;20195;-82
2022/08/04 10:12:39;;;;;;;3.20;2.50;;;;;;;29.72;41.95;94822.31;5006653;28;20266;-86
2022/08/04 10:15:17;;;;;;;2.60;2.40;;;;;;;29.87;39.75;94832.16;5005603;28;20235;-86
2022/08/04 10:18:02;;;;;;;5.20;2.30;;;;;;;29.89;39.40;94829.28;5003363;28;20188;-81
2022/08/04 10:20:54;;;;;;;2.67;2.47;;;;;;;29.98;39.29;94825.09;5002109;28;20224;-83
2022/08/04 10:23:33;;;;;;;3.83;2.60;;;;;;;29.97;37.04;94824.31;4999971;28;20246;-82
2022/08/04 10:26:13;;;;;;;2.60;2.40;;;;;;;29.81;37.00;94788.34;4999347;28;20187;-83
2022/08/04 10:28:45;;;;;;;2.80;2.60;;;;;;;30.06;37.14;94826.47;5001675;28;20192;-82
2022/08/04 10:31:19;;;;;;;2.45;2.33;;;;;;;30.08;37.10;94824.34;5002813;28;20195;-85
2022/08/04 10:33:53;;;;;;;2.60;2.40;;;;;;;30.04;36.52;94812.72;4996847;28;20240;-82
2022/08/04 10:36:23;;;;;;;3.45;2.70;;;;;;;30.13;37.13;94808.53;5007591;28;20205;-79
2022/08/04 10:38:57;;;;;;;4.45;2.63;;;;;;;30.20;36.89;94807.28;5009250;28;21097;-82
2022/08/04 10:41:30;;;;;;;4.63;2.70;;;;;;;30.31;37.33;94809.97;5010326;28;20204;-80
2022/08/04 10:44:13;;;;;;;2.72;2.53;;;;;;;30.35;37.30;94803.13;5009398;28;20204;-84
2022/08/04 10:46:45;;;;;;;2.60;2.40;;;;;;;30.36;36.74;94800.22;5040212;28;20194;-82
2022/08/04 10:49:22;;;;;;;3.28;2.83;;;;;;;30.41;36.10;94786.25;5091609;28;20575;-82
2022/08/04 10:51:55;;;;;;;2.53;2.33;;;;;;;30.55;35.05;94797.13;5091611;28;20757;-83
2022/08/04 10:54:27;;;;;;;2.35;2.13;;;;;;;30.56;33.98;94807.41;5091152;28;20190;-85
2022/08/04 10:56:59;;;;;;;3.78;2.65;;;;;;;30.48;33.99;94789.44;5091230;28;20205;-82
2022/08/04 10:59:33;;;;;;;2.47;2.28;;;;;;;30.52;34.76;94797.63;5091733;28;20190;-84
2022/08/04 11:02:12;;;;;;;2.80;2.60;;;;;;;30.57;34.93;94801.09;5091601;28;20186;-84
2022/08/04 11:04:44;;;;;;;2.70;2.20;;;;;;;30.58;35.07;94797.38;5093038;28;20216;-84
2022/08/04 11:07:15;;;;;;;3.67;2.60;;;;;;;30.39;34.47;94759.31;5093637;28;20265;-83
2022/08/04 11:09:44;;;;;;;3.13;2.60;;;;;;;30.36;34.50;94763.28;5094381;28;20221;-83
2022/08/04 11:12:17;;;;;;;4.60;2.38;;;;;;;30.62;34.91;94784.47;5097965;28;20224;-83
2022/08/04 11:14:52;;;;;;;5.20;2.60;;;;;;;30.62;35.32;94785.25;5096210;28;20229;-82
2022/08/04 11:17:24;;;;;;;3.20;2.80;;;;;;;30.69;35.35;94791.06;5102086;28;20185;-86
2022/08/04 11:20:01;;;;;;;3.22;2.90;;;;;;;30.38;34.88;94723.44;5103958;28;20641;-84
2022/08/04 11:22:30;;;;;;;4.05;2.85;;;;;;;30.48;35.76;94742.72;5101417;28;20201;-85
2022/08/04 11:25:08;;;;;;;2.53;2.33;;;;;;;30.61;35.57;94759.88;5100004;28;20201;-83
2022/08/04 11:27:44;;;;;;;4.10;2.65;;;;;;;30.68;34.97;94765.72;5094638;28;20498;-84
2022/08/04 11:30:16;;;;;;;4.00;2.50;;;;;;;30.80;34.84;94772.66;5092743;28;20185;-84
2022/08/04 11:32:47;;;;;;;2.45;2.28;;;;;;;30.91;34.84;94776.88;5091769;28;20225;-84
2022/08/04 11:35:24;;;;;;;2.70;2.50;;;;;;;30.90;34.92;94781.34;5091529;28;20213;-84
2022/08/04 11:38:02;;;;;;;2.20;2.00;;;;;;;30.97;33.47;94773.19;5091981;28;20192;-83
2022/08/04 11:40:37;;;;;;;4.20;2.08;;;;;;;30.91;33.94;94768.94;5091025;28;20588;-83
2022/08/04 11:43:09;;;;;;;2.75;2.17;;;;;;;30.96;34.45;94769.75;5095719;28;20230;-83
2022/08/04 11:45:42;;;;;;;2.50;2.30;;;;;;;30.78;34.16;94772.88;5095088;28;20190;-84
2022/08/04 11:48:13;;;;;;;3.92;2.50;;;;;;;30.73;34.88;94763.13;5094640;28;20272;-83
2022/08/04 11:50:44;;;;;;;2.72;2.53;;;;;;;30.85;33.74;94762.06;5094649;28;20200;-84
2022/08/04 11:53:18;;;;;;;2.58;2.38;;;;;;;30.90;33.70;94754.16;5094360;28;20225;-83
2022/08/04 11:55:48;;;;;;;2.22;2.10;;;;;;;31.04;33.74;94759.69;5094763;28;20186;-83
2022/08/04 11:58:15;;;;;;;5.95;2.20;;;;;;;31.08;33.45;94758.91;5094645;28;20189;-83
2022/08/04 12:00:52;;;;;;;2.67;2.47;;;;;;;31.07;33.22;94769.75;5094346;28;20262;-84
2022/08/04 12:03:27;;;;;;;2.60;2.22;;;;;;;31.02;32.41;94762.63;5095003;28;20208;-83
2022/08/04 12:06:10;;;;;;;4.47;2.70;;;;;;;31.04;33.23;94755.22;5094531;28;20284;-82
2022/08/04 12:08:54;;;;;;;6.13;2.53;;;;;;;31.13;33.63;94755.47;5093762;28;20610;-83
2022/08/04 12:11:29;;;;;;;2.25;2.15;;;;;;;31.03;34.31;94751.00;5094634;28;20629;-83
2022/08/04 12:14:09;;;;;;;4.95;2.95;;;;;;;31.07;35.47;94764.47;5093588;28;20734;-84
2022/08/04 12:16:48;;;;;;;3.30;3.00;;;;;;;31.03;34.70;94744.91;5093709;28;20189;-83
2022/08/04 12:19:24;;;;;;;3.55;2.38;;;;;;;31.20;34.52;94769.22;5093955;28;20660;-83